FDX545 EHRD-EGCC
Flight info
| Callsign | FDX545 |
|---|---|
| Flight time | 1h 53m |
| Altitude | 8000 |
| Route | ABNED DCT BANEM DCT LESTA |
| Aircraft | C208/L-SDFGR/C |
Departure
| Time | 2026-05-04 15:32 |
|---|---|
| Airport | Rotterdam The Hague Airport (EHRD) |
Arrival
| Time | 2026-05-04 17:26 |
|---|---|
| Airport | Manchester Airport (EGCC) |
| Time | Latitude | Longitude | Altitude | Speed | Heading |
|---|---|---|---|---|---|
| 2026-05-04 14:46 | 51.95118 | 4.43958 | -9 ft | 0 kts | 327° |
| 2026-05-04 15:23 | 51.95117 | 4.43959 | -9 ft | 2 kts | 327° |
| 2026-05-04 15:23 | 51.95101 | 4.44001 | -9 ft | 4 kts | 241° |
| 2026-05-04 15:23 | 51.95103 | 4.44006 | -9 ft | 0 kts | 239° |
| 2026-05-04 15:26 | 51.95005 | 4.43942 | -9 ft | 20 kts | 236° |
| 2026-05-04 15:26 | 51.94958 | 4.43762 | -9 ft | 16 kts | 278° |
| 2026-05-04 15:26 | 51.95184 | 4.43498 | -7 ft | 24 kts | 326° |
| 2026-05-04 15:27 | 51.95234 | 4.43378 | -8 ft | 13 kts | 240° |
| 2026-05-04 15:27 | 51.95110 | 4.43013 | -6 ft | 5 kts | 262° |
| 2026-05-04 15:28 | 51.95110 | 4.43012 | -6 ft | 0 kts | 262° |
| 2026-05-04 15:30 | 51.95161 | 4.42897 | -5 ft | 15 kts | 327° |
| 2026-05-04 15:30 | 51.95247 | 4.42916 | -4 ft | 1 kts | 61° |
| 2026-05-04 15:31 | 51.95603 | 4.43809 | -7 ft | 93 kts | 58° |
| 2026-05-04 15:31 | 51.95925 | 4.44780 | 245 ft | 99 kts | 52° |
| 2026-05-04 15:32 | 51.97247 | 4.47714 | 1128 ft | 122 kts | 58° |
| 2026-05-04 15:32 | 51.98020 | 4.50286 | 1745 ft | 127 kts | 56° |
| 2026-05-04 15:33 | 51.99499 | 4.50969 | 2363 ft | 123 kts | 327° |
| 2026-05-04 15:34 | 52.01103 | 4.47526 | 2986 ft | 145 kts | 305° |
| 2026-05-04 15:34 | 52.01720 | 4.46139 | 2986 ft | 156 kts | 304° |
| 2026-05-04 15:34 | 52.01815 | 4.42682 | 2987 ft | 168 kts | 237° |
| 2026-05-04 15:35 | 51.99868 | 4.40569 | 2980 ft | 171 kts | 214° |
| 2026-05-04 15:35 | 51.98927 | 4.39431 | 2984 ft | 171 kts | 218° |
| 2026-05-04 15:35 | 51.97989 | 4.38231 | 2984 ft | 171 kts | 218° |
| 2026-05-04 15:36 | 51.96290 | 4.35587 | 2969 ft | 171 kts | 245° |
| 2026-05-04 15:36 | 51.96058 | 4.33706 | 2968 ft | 170 kts | 266° |
| 2026-05-04 15:36 | 51.95974 | 4.31798 | 2973 ft | 170 kts | 264° |
| 2026-05-04 15:37 | 51.95841 | 4.29955 | 3149 ft | 161 kts | 262° |
| 2026-05-04 15:37 | 51.95694 | 4.28190 | 3396 ft | 154 kts | 262° |
| 2026-05-04 15:37 | 51.95551 | 4.26487 | 3630 ft | 151 kts | 262° |
| 2026-05-04 15:37 | 51.95409 | 4.24810 | 3878 ft | 149 kts | 262° |
| 2026-05-04 15:38 | 51.95269 | 4.23150 | 4128 ft | 148 kts | 262° |
| 2026-05-04 15:38 | 51.95129 | 4.21498 | 4384 ft | 147 kts | 262° |
| 2026-05-04 15:38 | 51.94991 | 4.19878 | 4640 ft | 147 kts | 262° |
| 2026-05-04 15:38 | 51.94851 | 4.18223 | 4893 ft | 146 kts | 261° |
| 2026-05-04 15:39 | 51.94712 | 4.16591 | 5138 ft | 146 kts | 262° |
| 2026-05-04 15:39 | 51.94573 | 4.14960 | 5388 ft | 146 kts | 261° |
| 2026-05-04 15:39 | 51.94297 | 4.11730 | 5897 ft | 145 kts | 261° |
| 2026-05-04 15:40 | 51.94158 | 4.10102 | 6149 ft | 145 kts | 261° |
| 2026-05-04 15:40 | 51.94017 | 4.08478 | 6407 ft | 145 kts | 261° |
| 2026-05-04 15:40 | 51.93863 | 4.06864 | 6645 ft | 145 kts | 260° |
| 2026-05-04 15:40 | 51.93705 | 4.05246 | 6890 ft | 145 kts | 260° |
| 2026-05-04 15:41 | 51.93549 | 4.03632 | 7135 ft | 145 kts | 260° |
| 2026-05-04 15:41 | 51.93395 | 4.02023 | 7383 ft | 145 kts | 260° |
| 2026-05-04 15:41 | 51.93239 | 4.00408 | 7633 ft | 145 kts | 261° |
| 2026-05-04 15:41 | 51.93083 | 3.98799 | 7881 ft | 144 kts | 260° |
| 2026-05-04 15:42 | 51.92925 | 3.97166 | 7985 ft | 152 kts | 261° |
| 2026-05-04 15:42 | 51.92757 | 3.95417 | 8001 ft | 161 kts | 261° |
| 2026-05-04 15:42 | 51.92583 | 3.93614 | 8003 ft | 166 kts | 261° |
| 2026-05-04 15:42 | 51.92402 | 3.91749 | 8004 ft | 168 kts | 260° |
| 2026-05-04 15:43 | 51.92218 | 3.89867 | 8009 ft | 169 kts | 261° |
| 2026-05-04 15:43 | 51.92034 | 3.87977 | 8013 ft | 170 kts | 261° |
| 2026-05-04 15:43 | 51.91849 | 3.86082 | 8015 ft | 170 kts | 261° |
| 2026-05-04 15:43 | 51.91663 | 3.84184 | 8018 ft | 170 kts | 261° |
| 2026-05-04 15:44 | 51.91479 | 3.82308 | 8018 ft | 170 kts | 261° |
| 2026-05-04 15:44 | 51.91293 | 3.80417 | 8015 ft | 170 kts | 261° |
| 2026-05-04 15:44 | 51.91106 | 3.78517 | 8017 ft | 170 kts | 261° |
| 2026-05-04 15:44 | 51.90921 | 3.76623 | 8020 ft | 170 kts | 261° |
| 2026-05-04 15:45 | 51.90734 | 3.74725 | 8019 ft | 170 kts | 261° |
| 2026-05-04 15:45 | 51.90546 | 3.72830 | 8021 ft | 170 kts | 261° |
| 2026-05-04 15:45 | 51.90358 | 3.70932 | 8022 ft | 170 kts | 261° |
| 2026-05-04 15:45 | 51.90170 | 3.69035 | 8022 ft | 170 kts | 261° |
| 2026-05-04 15:46 | 51.89984 | 3.67162 | 8020 ft | 170 kts | 261° |
| 2026-05-04 15:46 | 51.89794 | 3.65264 | 8022 ft | 170 kts | 261° |
| 2026-05-04 15:46 | 51.89605 | 3.63366 | 8029 ft | 170 kts | 261° |
| 2026-05-04 15:46 | 51.89416 | 3.61468 | 8027 ft | 170 kts | 261° |
| 2026-05-04 15:47 | 51.89226 | 3.59575 | 8028 ft | 170 kts | 260° |
| 2026-05-04 15:47 | 51.89036 | 3.57677 | 8026 ft | 170 kts | 261° |
| 2026-05-04 15:47 | 51.88850 | 3.55820 | 8025 ft | 169 kts | 260° |
| 2026-05-04 15:47 | 51.88662 | 3.53945 | 8025 ft | 168 kts | 260° |
| 2026-05-04 15:48 | 51.88474 | 3.52082 | 8023 ft | 168 kts | 260° |
| 2026-05-04 15:48 | 51.88285 | 3.50218 | 8022 ft | 167 kts | 260° |
| 2026-05-04 15:48 | 51.87909 | 3.46497 | 8021 ft | 167 kts | 260° |
| 2026-05-04 15:49 | 51.87721 | 3.44635 | 8022 ft | 167 kts | 260° |
| 2026-05-04 15:49 | 51.87533 | 3.42785 | 8021 ft | 167 kts | 260° |
| 2026-05-04 15:49 | 51.87344 | 3.40927 | 8017 ft | 167 kts | 260° |
| 2026-05-04 15:49 | 51.87157 | 3.39097 | 8018 ft | 167 kts | 260° |
| 2026-05-04 15:50 | 51.86969 | 3.37247 | 8016 ft | 167 kts | 260° |
| 2026-05-04 15:50 | 51.86778 | 3.35387 | 8018 ft | 167 kts | 260° |
| 2026-05-04 15:50 | 51.86591 | 3.33554 | 8017 ft | 167 kts | 260° |
| 2026-05-04 15:50 | 51.86401 | 3.31702 | 8018 ft | 166 kts | 260° |
| 2026-05-04 15:51 | 51.86212 | 3.29853 | 8016 ft | 166 kts | 260° |
| 2026-05-04 15:51 | 51.86023 | 3.28026 | 8016 ft | 166 kts | 260° |
| 2026-05-04 15:51 | 51.85832 | 3.26176 | 8014 ft | 166 kts | 260° |
| 2026-05-04 15:51 | 51.85644 | 3.24342 | 8049 ft | 163 kts | 260° |
| 2026-05-04 15:52 | 51.85461 | 3.22571 | 8300 ft | 156 kts | 260° |
| 2026-05-04 15:52 | 51.85282 | 3.20855 | 8548 ft | 152 kts | 260° |
| 2026-05-04 15:52 | 51.85110 | 3.19184 | 8797 ft | 149 kts | 260° |
| 2026-05-04 15:52 | 51.84941 | 3.17558 | 9047 ft | 147 kts | 259° |
| 2026-05-04 15:53 | 51.84844 | 3.15911 | 9300 ft | 146 kts | 264° |
| 2026-05-04 15:53 | 51.84728 | 3.14280 | 9562 ft | 145 kts | 262° |
| 2026-05-04 15:53 | 51.84616 | 3.12655 | 9824 ft | 145 kts | 263° |
| 2026-05-04 15:53 | 51.84509 | 3.11034 | 10059 ft | 145 kts | 263° |
| 2026-05-04 15:54 | 51.84440 | 3.09960 | 10220 ft | 144 kts | 263° |
| 2026-05-04 15:54 | 51.84301 | 3.07824 | 10544 ft | 144 kts | 263° |
| 2026-05-04 15:54 | 51.84231 | 3.06737 | 10704 ft | 144 kts | 263° |
| 2026-05-04 15:54 | 51.84127 | 3.05133 | 10943 ft | 143 kts | 263° |
| 2026-05-04 15:55 | 51.84024 | 3.03556 | 11184 ft | 143 kts | 263° |
| 2026-05-04 15:55 | 51.83921 | 3.01962 | 11432 ft | 142 kts | 263° |
| 2026-05-04 15:55 | 51.83817 | 3.00369 | 11679 ft | 142 kts | 263° |
| 2026-05-04 15:55 | 51.83714 | 2.98781 | 11932 ft | 142 kts | 263° |
| 2026-05-04 15:56 | 51.83606 | 2.97143 | 12005 ft | 153 kts | 263° |
| 2026-05-04 15:56 | 51.83490 | 2.95368 | 12017 ft | 163 kts | 264° |
| 2026-05-04 15:56 | 51.83368 | 2.93499 | 12018 ft | 169 kts | 263° |
| 2026-05-04 15:56 | 51.83243 | 2.91586 | 12016 ft | 173 kts | 263° |
| 2026-05-04 15:57 | 51.83115 | 2.89666 | 12012 ft | 175 kts | 263° |
| 2026-05-04 15:57 | 51.82985 | 2.87711 | 12015 ft | 175 kts | 263° |
| 2026-05-04 15:57 | 51.82855 | 2.85748 | 12010 ft | 176 kts | 263° |
| 2026-05-04 15:57 | 51.82723 | 2.83780 | 12007 ft | 176 kts | 263° |
| 2026-05-04 15:58 | 51.82591 | 2.81808 | 12012 ft | 176 kts | 263° |
| 2026-05-04 15:58 | 51.82459 | 2.79835 | 12011 ft | 177 kts | 263° |
| 2026-05-04 15:58 | 51.82326 | 2.77858 | 12010 ft | 177 kts | 263° |
| 2026-05-04 15:58 | 51.82194 | 2.75890 | 12011 ft | 176 kts | 263° |
| 2026-05-04 15:59 | 51.82061 | 2.73919 | 12010 ft | 176 kts | 263° |
| 2026-05-04 15:59 | 51.81928 | 2.71954 | 12008 ft | 176 kts | 263° |
| 2026-05-04 15:59 | 51.81794 | 2.69985 | 12006 ft | 175 kts | 263° |
| 2026-05-04 15:59 | 51.81662 | 2.68047 | 12009 ft | 175 kts | 263° |
| 2026-05-04 16:00 | 51.81529 | 2.66089 | 12008 ft | 175 kts | 263° |
| 2026-05-04 16:00 | 51.81395 | 2.64124 | 12009 ft | 175 kts | 263° |
| 2026-05-04 16:00 | 51.81260 | 2.62163 | 12007 ft | 175 kts | 263° |
| 2026-05-04 16:00 | 51.81126 | 2.60226 | 12006 ft | 175 kts | 263° |
| 2026-05-04 16:01 | 51.80991 | 2.58271 | 12009 ft | 175 kts | 263° |
| 2026-05-04 16:01 | 51.80858 | 2.56317 | 12009 ft | 175 kts | 263° |
| 2026-05-04 16:01 | 51.80723 | 2.54354 | 12003 ft | 175 kts | 261° |
| 2026-05-04 16:01 | 51.80586 | 2.52403 | 12004 ft | 175 kts | 263° |
| 2026-05-04 16:02 | 51.80450 | 2.50447 | 12005 ft | 175 kts | 263° |
| 2026-05-04 16:02 | 51.80313 | 2.48496 | 12004 ft | 175 kts | 263° |
| 2026-05-04 16:02 | 51.80042 | 2.44610 | 12009 ft | 175 kts | 263° |
| 2026-05-04 16:03 | 51.79905 | 2.42657 | 12009 ft | 175 kts | 263° |
| 2026-05-04 16:03 | 51.79767 | 2.40698 | 12008 ft | 175 kts | 263° |
| 2026-05-04 16:03 | 51.79629 | 2.38748 | 12006 ft | 175 kts | 263° |
| 2026-05-04 16:03 | 51.79492 | 2.36802 | 12012 ft | 175 kts | 263° |
| 2026-05-04 16:04 | 51.79353 | 2.34849 | 12009 ft | 174 kts | 263° |
| 2026-05-04 16:04 | 51.79085 | 2.31093 | 12001 ft | 166 kts | 263° |
| 2026-05-04 16:04 | 51.78954 | 2.29240 | 11999 ft | 165 kts | 263° |
| 2026-05-04 16:05 | 51.78823 | 2.27394 | 11999 ft | 165 kts | 263° |
| 2026-05-04 16:05 | 51.78690 | 2.25555 | 11997 ft | 164 kts | 263° |
| 2026-05-04 16:05 | 51.78599 | 2.21915 | 12001 ft | 164 kts | 286° |
| 2026-05-04 16:06 | 51.79129 | 2.20280 | 11999 ft | 163 kts | 300° |
| 2026-05-04 16:06 | 51.80593 | 2.16073 | 11997 ft | 160 kts | 296° |
| 2026-05-04 16:07 | 51.81302 | 2.13957 | 12001 ft | 159 kts | 296° |
| 2026-05-04 16:07 | 51.82874 | 2.09253 | 11999 ft | 159 kts | 296° |
| 2026-05-04 16:08 | 51.83400 | 2.07683 | 12001 ft | 159 kts | 296° |
| 2026-05-04 16:08 | 51.84966 | 2.02985 | 12002 ft | 158 kts | 296° |
| 2026-05-04 16:09 | 51.86013 | 1.99842 | 12002 ft | 159 kts | 296° |
| 2026-05-04 16:09 | 51.87056 | 1.96708 | 12003 ft | 159 kts | 296° |
| 2026-05-04 16:10 | 51.88105 | 1.93551 | 12002 ft | 159 kts | 295° |
| 2026-05-04 16:11 | 51.89687 | 1.88851 | 12002 ft | 160 kts | 302° |
| 2026-05-04 16:11 | 51.90559 | 1.87721 | 12002 ft | 164 kts | 330° |
| 2026-05-04 16:12 | 51.93620 | 1.85231 | 12012 ft | 164 kts | 328° |
| 2026-05-04 16:12 | 51.96632 | 1.82633 | 12015 ft | 164 kts | 329° |
| 2026-05-04 16:13 | 51.98651 | 1.80895 | 12022 ft | 165 kts | 329° |
| 2026-05-04 16:13 | 52.00675 | 1.79151 | 12132 ft | 159 kts | 328° |
| 2026-05-04 16:14 | 52.02577 | 1.77504 | 12633 ft | 153 kts | 327° |
| 2026-05-04 16:14 | 52.04447 | 1.75888 | 13151 ft | 151 kts | 327° |
| 2026-05-04 16:15 | 52.07198 | 1.73508 | 13924 ft | 149 kts | 328° |
| 2026-05-04 16:16 | 52.09012 | 1.71935 | 14392 ft | 148 kts | 327° |
| 2026-05-04 16:16 | 52.11748 | 1.69562 | 15123 ft | 148 kts | 327° |
| 2026-05-04 16:17 | 52.13556 | 1.67992 | 15608 ft | 148 kts | 327° |
| 2026-05-04 16:18 | 52.16274 | 1.65626 | 16361 ft | 147 kts | 326° |
| 2026-05-04 16:18 | 52.17174 | 1.64843 | 16618 ft | 146 kts | 326° |
| 2026-05-04 16:19 | 52.19830 | 1.62531 | 17389 ft | 143 kts | 326° |
| 2026-05-04 16:19 | 52.21585 | 1.60999 | 17918 ft | 142 kts | 326° |
| 2026-05-04 16:20 | 52.24511 | 1.58440 | 18038 ft | 176 kts | 327° |
| 2026-05-04 16:20 | 52.26730 | 1.56505 | 18038 ft | 182 kts | 327° |
| 2026-05-04 16:21 | 52.30058 | 1.53590 | 18038 ft | 181 kts | 327° |
| 2026-05-04 16:22 | 52.32262 | 1.51658 | 18035 ft | 178 kts | 327° |
| 2026-05-04 16:22 | 52.34132 | 1.47148 | 18038 ft | 164 kts | 280° |
| 2026-05-04 16:23 | 52.35040 | 1.41722 | 18041 ft | 165 kts | 281° |
| 2026-05-04 16:24 | 52.36239 | 1.34513 | 18048 ft | 165 kts | 281° |
| 2026-05-04 16:25 | 52.36861 | 1.30900 | 18051 ft | 165 kts | 281° |
| 2026-05-04 16:26 | 52.38069 | 1.23682 | 18057 ft | 165 kts | 281° |
| 2026-05-04 16:26 | 52.38909 | 1.18246 | 17984 ft | 167 kts | 275° |
| 2026-05-04 16:27 | 52.39139 | 1.14424 | 17997 ft | 162 kts | 270° |
| 2026-05-04 16:28 | 52.39324 | 1.08883 | 18031 ft | 165 kts | 268° |
| 2026-05-04 16:28 | 52.39350 | 1.03227 | 18039 ft | 166 kts | 265° |
| 2026-05-04 16:29 | 52.39136 | 0.95662 | 18044 ft | 167 kts | 262° |
| 2026-05-04 16:30 | 52.38792 | 0.89993 | 18036 ft | 167 kts | 262° |
| 2026-05-04 16:31 | 52.39879 | 0.86714 | 18031 ft | 180 kts | 322° |
| 2026-05-04 16:31 | 52.43129 | 0.83556 | 18043 ft | 181 kts | 324° |
| 2026-05-04 16:32 | 52.45439 | 0.79069 | 18046 ft | 170 kts | 282° |
| 2026-05-04 16:33 | 52.46038 | 0.75317 | 18046 ft | 170 kts | 280° |
| 2026-05-04 16:33 | 52.46640 | 0.71581 | 18046 ft | 170 kts | 280° |
| 2026-05-04 16:34 | 52.47244 | 0.67842 | 18045 ft | 170 kts | 280° |
| 2026-05-04 16:34 | 52.47548 | 0.65968 | 18040 ft | 170 kts | 280° |
| 2026-05-04 16:35 | 52.48453 | 0.60353 | 18037 ft | 170 kts | 280° |
| 2026-05-04 16:35 | 52.49355 | 0.54737 | 18046 ft | 170 kts | 280° |
| 2026-05-04 16:36 | 52.49654 | 0.52860 | 18043 ft | 170 kts | 280° |
| 2026-05-04 16:36 | 52.50256 | 0.49109 | 18042 ft | 170 kts | 280° |
| 2026-05-04 16:37 | 52.50755 | 0.45983 | 18042 ft | 170 kts | 280° |
| 2026-05-04 16:37 | 52.51151 | 0.43499 | 18047 ft | 170 kts | 280° |
| 2026-05-04 16:37 | 52.51751 | 0.39730 | 18041 ft | 171 kts | 280° |
| 2026-05-04 16:38 | 52.52248 | 0.36594 | 18046 ft | 171 kts | 279° |
| 2026-05-04 16:39 | 52.53147 | 0.30918 | 18058 ft | 171 kts | 280° |
| 2026-05-04 16:39 | 52.53744 | 0.27145 | 18058 ft | 170 kts | 279° |
| 2026-05-04 16:40 | 52.54335 | 0.23387 | 18059 ft | 171 kts | 279° |
| 2026-05-04 16:40 | 52.54931 | 0.19596 | 18054 ft | 171 kts | 279° |
| 2026-05-04 16:41 | 52.55520 | 0.15838 | 18054 ft | 171 kts | 279° |
| 2026-05-04 16:41 | 52.56407 | 0.10165 | 18059 ft | 171 kts | 279° |
| 2026-05-04 16:42 | 52.57289 | 0.04504 | 18055 ft | 171 kts | 279° |
| 2026-05-04 16:43 | 52.57876 | 0.00725 | 18055 ft | 170 kts | 279° |
| 2026-05-04 16:43 | 52.58462 | -0.03057 | 18055 ft | 171 kts | 279° |
| 2026-05-04 16:43 | 52.58755 | -0.04951 | 18056 ft | 171 kts | 279° |
| 2026-05-04 16:44 | 52.59922 | -0.12506 | 18055 ft | 171 kts | 279° |
| 2026-05-04 16:45 | 52.60500 | -0.16271 | 18052 ft | 169 kts | 279° |
| 2026-05-04 16:46 | 52.61362 | -0.21890 | 18058 ft | 168 kts | 278° |
| 2026-05-04 16:46 | 52.61932 | -0.25626 | 18057 ft | 168 kts | 278° |
| 2026-05-04 16:47 | 52.62503 | -0.29365 | 18063 ft | 168 kts | 278° |
| 2026-05-04 16:47 | 52.63068 | -0.33080 | 18065 ft | 168 kts | 278° |
| 2026-05-04 16:48 | 52.63922 | -0.38708 | 18067 ft | 169 kts | 278° |
| 2026-05-04 16:48 | 52.64206 | -0.40587 | 18065 ft | 169 kts | 278° |
| 2026-05-04 16:49 | 52.64770 | -0.44315 | 18062 ft | 169 kts | 278° |
| 2026-05-04 16:49 | 52.65337 | -0.48080 | 18065 ft | 169 kts | 278° |
| 2026-05-04 16:50 | 52.65903 | -0.51844 | 18063 ft | 169 kts | 278° |
| 2026-05-04 16:50 | 52.66466 | -0.55593 | 18060 ft | 169 kts | 278° |
| 2026-05-04 16:51 | 52.67031 | -0.59369 | 18062 ft | 170 kts | 278° |
| 2026-05-04 16:51 | 52.67313 | -0.61260 | 18064 ft | 170 kts | 278° |
| 2026-05-04 16:51 | 52.67878 | -0.65040 | 18060 ft | 170 kts | 278° |
| 2026-05-04 16:52 | 52.68437 | -0.68801 | 18064 ft | 170 kts | 278° |
| 2026-05-04 16:52 | 52.68719 | -0.70697 | 18064 ft | 170 kts | 278° |
| 2026-05-04 16:53 | 52.69276 | -0.74452 | 18061 ft | 169 kts | 278° |
| 2026-05-04 16:53 | 52.70112 | -0.80112 | 18061 ft | 169 kts | 278° |
| 2026-05-04 16:54 | 52.70392 | -0.82026 | 17910 ft | 177 kts | 278° |
| 2026-05-04 16:55 | 52.71588 | -0.90138 | 16870 ft | 179 kts | 278° |
| 2026-05-04 16:55 | 52.72167 | -0.94111 | 16358 ft | 177 kts | 278° |
| 2026-05-04 16:56 | 52.72744 | -0.98055 | 15847 ft | 176 kts | 278° |
| 2026-05-04 16:56 | 52.73595 | -1.03904 | 15105 ft | 175 kts | 278° |
| 2026-05-04 16:57 | 52.73878 | -1.05849 | 14857 ft | 174 kts | 278° |
| 2026-05-04 16:57 | 52.75115 | -1.09302 | 14367 ft | 182 kts | 309° |
| 2026-05-04 16:58 | 52.77559 | -1.13788 | 14054 ft | 164 kts | 305° |
| 2026-05-04 16:58 | 52.78289 | -1.15175 | 14043 ft | 160 kts | 305° |
| 2026-05-04 16:59 | 52.79729 | -1.17905 | 14046 ft | 156 kts | 305° |
| 2026-05-04 17:00 | 52.82554 | -1.23262 | 14050 ft | 155 kts | 305° |
| 2026-05-04 17:00 | 52.84673 | -1.27298 | 13910 ft | 162 kts | 305° |
| 2026-05-04 17:01 | 52.86179 | -1.30161 | 13520 ft | 172 kts | 306° |
| 2026-05-04 17:01 | 52.87753 | -1.33162 | 13102 ft | 173 kts | 306° |
| 2026-05-04 17:02 | 52.89323 | -1.36152 | 12690 ft | 173 kts | 306° |
| 2026-05-04 17:02 | 52.90893 | -1.39151 | 12284 ft | 172 kts | 307° |
| 2026-05-04 17:03 | 52.91687 | -1.40671 | 12060 ft | 172 kts | 307° |
| 2026-05-04 17:03 | 52.92459 | -1.42149 | 11876 ft | 171 kts | 307° |
| 2026-05-04 17:03 | 52.94018 | -1.45133 | 11472 ft | 171 kts | 307° |
| 2026-05-04 17:04 | 52.95569 | -1.48107 | 11071 ft | 169 kts | 307° |
| 2026-05-04 17:04 | 52.97103 | -1.51051 | 10673 ft | 168 kts | 308° |
| 2026-05-04 17:05 | 52.98623 | -1.53970 | 10284 ft | 168 kts | 308° |
| 2026-05-04 17:05 | 53.00144 | -1.56899 | 9895 ft | 167 kts | 308° |
| 2026-05-04 17:06 | 53.01657 | -1.59812 | 9471 ft | 166 kts | 308° |
| 2026-05-04 17:06 | 53.02411 | -1.61266 | 9261 ft | 166 kts | 308° |
| 2026-05-04 17:07 | 53.03906 | -1.64152 | 8841 ft | 165 kts | 308° |
| 2026-05-04 17:07 | 53.04405 | -1.65107 | 8704 ft | 165 kts | 310° |
| 2026-05-04 17:07 | 53.05494 | -1.66916 | 8418 ft | 167 kts | 324° |
| 2026-05-04 17:07 | 53.06544 | -1.67750 | 8264 ft | 165 kts | 334° |
| 2026-05-04 17:08 | 53.07563 | -1.68483 | 8257 ft | 158 kts | 333° |
| 2026-05-04 17:08 | 53.09545 | -1.69905 | 8245 ft | 153 kts | 333° |
| 2026-05-04 17:08 | 53.10520 | -1.70607 | 8244 ft | 151 kts | 334° |
| 2026-05-04 17:09 | 53.11472 | -1.71291 | 8246 ft | 150 kts | 334° |
| 2026-05-04 17:09 | 53.12431 | -1.71985 | 8215 ft | 152 kts | 333° |
| 2026-05-04 17:09 | 53.13403 | -1.72689 | 8192 ft | 151 kts | 333° |
| 2026-05-04 17:10 | 53.15401 | -1.74151 | 7850 ft | 161 kts | 334° |
| 2026-05-04 17:10 | 53.18493 | -1.76433 | 7251 ft | 162 kts | 334° |
| 2026-05-04 17:11 | 53.19526 | -1.77211 | 7055 ft | 163 kts | 333° |
| 2026-05-04 17:11 | 53.20547 | -1.77987 | 6863 ft | 163 kts | 334° |
| 2026-05-04 17:11 | 53.22621 | -1.79580 | 6469 ft | 163 kts | 334° |
| 2026-05-04 17:12 | 53.23656 | -1.80385 | 6255 ft | 163 kts | 333° |
| 2026-05-04 17:12 | 53.25676 | -1.81967 | 5986 ft | 155 kts | 333° |
| 2026-05-04 17:13 | 53.28493 | -1.84176 | 5975 ft | 145 kts | 333° |
| 2026-05-04 17:14 | 53.31357 | -1.86442 | 5460 ft | 161 kts | 334° |
| 2026-05-04 17:14 | 53.32376 | -1.87258 | 5209 ft | 163 kts | 333° |
| 2026-05-04 17:14 | 53.34361 | -1.88862 | 4992 ft | 151 kts | 333° |
| 2026-05-04 17:15 | 53.35294 | -1.89623 | 4981 ft | 147 kts | 333° |
| 2026-05-04 17:15 | 53.37182 | -1.91164 | 4684 ft | 155 kts | 334° |
| 2026-05-04 17:16 | 53.39111 | -1.92787 | 4329 ft | 157 kts | 333° |
| 2026-05-04 17:16 | 53.42007 | -1.95342 | 3785 ft | 155 kts | 333° |
| 2026-05-04 17:17 | 53.42959 | -1.96209 | 3615 ft | 156 kts | 333° |
| 2026-05-04 17:17 | 53.45672 | -1.98732 | 3434 ft | 143 kts | 333° |
| 2026-05-04 17:18 | 53.46536 | -1.99544 | 3330 ft | 145 kts | 334° |
| 2026-05-04 17:18 | 53.48195 | -2.01477 | 3125 ft | 153 kts | 302° |
| 2026-05-04 17:19 | 53.48371 | -2.04876 | 2978 ft | 133 kts | 274° |
| 2026-05-04 17:19 | 53.47855 | -2.07607 | 2776 ft | 133 kts | 207° |
| 2026-05-04 17:20 | 53.46096 | -2.07623 | 2572 ft | 131 kts | 171° |
| 2026-05-04 17:20 | 53.44440 | -2.08537 | 2426 ft | 128 kts | 214° |
| 2026-05-04 17:20 | 53.43748 | -2.09457 | 2373 ft | 124 kts | 222° |
| 2026-05-04 17:21 | 53.42612 | -2.11658 | 2253 ft | 131 kts | 232° |
| 2026-05-04 17:21 | 53.41508 | -2.13984 | 2206 ft | 124 kts | 232° |
| 2026-05-04 17:22 | 53.41009 | -2.15129 | 2130 ft | 116 kts | 234° |
| 2026-05-04 17:22 | 53.40692 | -2.15844 | 1985 ft | 116 kts | 234° |
| 2026-05-04 17:23 | 53.39393 | -2.18881 | 1384 ft | 109 kts | 240° |
| 2026-05-04 17:23 | 53.39033 | -2.19892 | 1284 ft | 98 kts | 241° |
| 2026-05-04 17:23 | 53.38148 | -2.21637 | 1038 ft | 97 kts | 229° |
| 2026-05-04 17:24 | 53.37691 | -2.22517 | 884 ft | 96 kts | 230° |
| 2026-05-04 17:24 | 53.36680 | -2.24762 | 532 ft | 77 kts | 229° |
| 2026-05-04 17:25 | 53.36360 | -2.25445 | 410 ft | 75 kts | 229° |
| 2026-05-04 17:25 | 53.35754 | -2.26740 | 249 ft | 59 kts | 230° |
| 2026-05-04 17:26 | 53.35461 | -2.27510 | 238 ft | 41 kts | 263° |
| 2026-05-04 17:26 | 53.35459 | -2.27794 | 237 ft | 0 kts | 269° |
| 2026-05-04 17:31 | 53.35502 | -2.27916 | 235 ft | 5 kts | 356° |
| 2026-05-04 17:31 | 53.35538 | -2.27812 | 236 ft | 0 kts | 47° |
| 2026-05-04 17:32 | 53.35656 | -2.27597 | 239 ft | 25 kts | 49° |
| 2026-05-04 17:33 | 53.35826 | -2.27017 | 245 ft | 23 kts | 59° |
| 2026-05-04 17:33 | 53.35935 | -2.26750 | 249 ft | 32 kts | 52° |
| 2026-05-04 17:34 | 53.36118 | -2.26745 | 250 ft | 18 kts | 311° |
| 2026-05-04 17:34 | 53.36129 | -2.26767 | 250 ft | 0 kts | 315° |